createdAt,value
2018-11-11T00:00:14.647Z,99609.23
2018-11-11T00:02:42.738Z,99611.30
2018-11-11T00:05:11.724Z,99624.40
2018-11-11T00:07:40.193Z,99628.09
2018-11-11T00:10:08.295Z,99643.42
2018-11-11T00:12:36.655Z,99639.22
2018-11-11T00:15:05.566Z,99626.78
2018-11-11T00:17:33.661Z,99630.09
2018-11-11T00:20:01.750Z,99645.16
2018-11-11T00:22:29.846Z,99638.38
2018-11-11T00:24:57.937Z,99635.73
2018-11-11T00:27:26.030Z,99644.02
2018-11-11T00:29:54.110Z,99644.78
2018-11-11T00:32:22.203Z,99651.55
2018-11-11T00:34:50.277Z,99646.69
2018-11-11T00:37:18.365Z,99659.01
2018-11-11T00:39:46.501Z,99653.70
2018-11-11T00:42:14.524Z,99659.70
2018-11-11T00:44:42.711Z,99652.13
2018-11-11T00:47:10.794Z,99648.44
2018-11-11T00:49:38.864Z,99640.65
2018-11-11T00:52:07.345Z,99650.36
2018-11-11T00:54:35.414Z,99654.70
2018-11-11T00:57:03.518Z,99648.61
2018-11-11T00:59:31.603Z,99639.98
2018-11-11T01:01:59.681Z,99645.77
2018-11-11T01:04:27.778Z,99641.63
2018-11-11T01:06:55.860Z,99649.19
2018-11-11T01:09:23.930Z,99648.41
2018-11-11T01:11:52.136Z,99658.50
2018-11-11T01:14:20.243Z,99670.58
2018-11-11T01:16:48.318Z,99670.67
2018-11-11T01:19:16.398Z,99668.83
2018-11-11T01:21:44.613Z,99659.25
2018-11-11T01:24:12.693Z,99661.39
2018-11-11T01:26:40.769Z,99668.44
2018-11-11T01:29:08.862Z,99657.58
2018-11-11T01:31:36.919Z,99664.67
2018-11-11T01:34:04.998Z,99668.58
2018-11-11T01:36:33.066Z,99672.81
2018-11-11T01:39:01.145Z,99668.95
2018-11-11T01:41:29.238Z,99669.14
2018-11-11T01:43:57.327Z,99671.66
2018-11-11T01:46:25.393Z,99668.48
2018-11-11T01:48:53.478Z,99673.60
2018-11-11T01:51:21.552Z,99677.19
2018-11-11T01:53:49.633Z,99677.84
2018-11-11T01:56:17.700Z,99688.06
2018-11-11T01:58:45.780Z,99692.20
2018-11-11T02:01:13.852Z,99692.20
2018-11-11T02:03:41.925Z,99672.66
2018-11-11T02:06:09.998Z,99667.78
2018-11-11T02:08:38.076Z,99673.28
2018-11-11T02:11:06.147Z,99662.91
2018-11-11T02:13:34.226Z,99666.41
2018-11-11T02:16:02.298Z,99666.23
2018-11-11T02:18:30.380Z,99674.25
2018-11-11T02:20:58.493Z,99675.73
2018-11-11T02:23:26.535Z,99679.42
2018-11-11T02:25:54.602Z,99682.45
2018-11-11T02:28:22.688Z,99678.86
2018-11-11T02:30:50.769Z,99678.23
2018-11-11T02:33:18.839Z,99676.71
2018-11-11T02:35:46.915Z,99678.06
2018-11-11T02:38:14.991Z,99676.87
2018-11-11T02:40:43.071Z,99675.75
2018-11-11T02:43:11.141Z,99678.93
2018-11-11T02:45:39.225Z,99673.40
2018-11-11T02:48:07.293Z,99678.14
2018-11-11T02:50:35.373Z,99672.33
2018-11-11T02:53:03.445Z,99668.03
2018-11-11T02:55:31.518Z,99677.81
2018-11-11T02:57:59.586Z,99686.67
2018-11-11T03:00:27.675Z,99683.69
2018-11-11T03:02:55.738Z,99675.16
2018-11-11T03:05:23.827Z,99686.17
2018-11-11T03:07:51.890Z,99689.64
2018-11-11T03:10:19.985Z,99678.00
2018-11-11T03:12:48.998Z,99680.31
2018-11-11T03:15:17.598Z,99674.58
2018-11-11T03:17:45.768Z,99685.88
2018-11-11T03:20:14.561Z,99681.17
2018-11-11T03:22:42.649Z,99684.76
2018-11-11T03:25:11.941Z,99673.91
2018-11-11T03:27:40.511Z,99683.75
2018-11-11T03:30:10.218Z,99682.92
2018-11-11T03:32:38.612Z,99665.27
2018-11-11T03:35:08.210Z,99664.08
2018-11-11T03:37:36.306Z,99673.13
2018-11-11T03:40:06.714Z,99677.51
2018-11-11T03:42:34.808Z,99676.51
2018-11-11T03:45:02.895Z,99682.17
2018-11-11T03:47:30.988Z,99676.15
2018-11-11T03:49:59.069Z,99680.37
2018-11-11T03:52:27.168Z,99688.30
2018-11-11T03:54:55.261Z,99687.02
2018-11-11T03:57:23.350Z,99691.00
2018-11-11T03:59:51.448Z,99689.80
2018-11-11T04:02:19.639Z,99682.03
2018-11-11T04:04:47.721Z,99675.89
2018-11-11T04:07:15.820Z,99690.09
2018-11-11T04:09:43.917Z,99678.15
2018-11-11T04:12:12.023Z,99677.27
2018-11-11T04:14:40.106Z,99670.22
2018-11-11T04:17:08.212Z,99677.22
2018-11-11T04:19:36.299Z,99672.20
2018-11-11T04:22:10.515Z,99673.56
2018-11-11T04:24:38.603Z,99675.41
2018-11-11T04:27:06.711Z,99681.86
2018-11-11T04:29:34.814Z,99674.32
2018-11-11T04:32:02.907Z,99688.33
2018-11-11T04:34:30.983Z,99687.86
2018-11-11T04:36:59.071Z,99699.31
2018-11-11T04:39:27.150Z,99700.66
2018-11-11T04:41:55.259Z,99687.13
2018-11-11T04:44:23.339Z,99680.77
2018-11-11T04:46:51.426Z,99673.18
2018-11-11T04:49:19.512Z,99667.70
2018-11-11T04:51:47.589Z,99656.56
2018-11-11T04:54:15.682Z,99653.30
2018-11-11T04:56:43.762Z,99657.60
2018-11-11T04:59:11.859Z,99646.12
2018-11-11T05:01:40.023Z,99627.19
2018-11-11T05:04:08.256Z,99627.42
2018-11-11T05:06:36.337Z,99624.72
2018-11-11T05:09:07.165Z,99629.89
2018-11-11T05:11:35.247Z,99648.44
2018-11-11T05:14:03.378Z,99638.89
2018-11-11T05:16:31.455Z,99633.31
2018-11-11T05:18:59.581Z,99630.58
2018-11-11T05:21:27.658Z,99632.49
2018-11-11T05:23:55.745Z,99640.62
2018-11-11T05:26:23.869Z,99640.86
2018-11-11T05:28:51.962Z,99637.16
2018-11-11T05:31:20.049Z,99648.79
2018-11-11T05:33:48.154Z,99655.21
2018-11-11T05:36:16.239Z,99659.67
2018-11-11T05:38:44.343Z,99658.64
2018-11-11T05:41:12.469Z,99650.91
2018-11-11T05:43:40.574Z,99656.54
2018-11-11T05:46:08.663Z,99663.06
2018-11-11T05:48:36.786Z,99661.92
2018-11-11T05:51:05.002Z,99661.60
2018-11-11T05:53:33.097Z,99664.04
2018-11-11T05:56:01.194Z,99658.22
2018-11-11T05:58:29.294Z,99663.24
2018-11-11T06:00:57.410Z,99668.58
2018-11-11T06:03:25.537Z,99669.38
2018-11-11T06:05:53.625Z,99676.70
2018-11-11T06:08:21.722Z,99672.92
2018-11-11T06:10:49.817Z,99677.86
2018-11-11T06:13:17.920Z,99665.31
2018-11-11T06:15:46.005Z,99668.02
2018-11-11T06:18:14.116Z,99671.37
2018-11-11T06:20:42.199Z,99673.80
2018-11-11T06:23:10.287Z,99674.98
2018-11-11T06:25:38.399Z,99687.25
2018-11-11T06:28:06.490Z,99686.70
2018-11-11T06:30:34.582Z,99696.81
2018-11-11T06:33:02.664Z,99709.38
2018-11-11T06:35:30.755Z,99729.88
2018-11-11T06:37:58.832Z,99738.80
2018-11-11T06:40:26.921Z,99743.48
2018-11-11T06:42:54.998Z,99755.11
2018-11-11T06:45:23.081Z,99762.49
2018-11-11T06:47:51.200Z,99767.28
2018-11-11T06:50:19.236Z,99768.92
2018-11-11T06:52:47.317Z,99772.03
2018-11-11T06:55:15.402Z,99777.84
2018-11-11T06:57:43.485Z,99774.73
2018-11-11T07:00:14.325Z,99785.98
2018-11-11T07:02:53.834Z,99779.69
2018-11-11T07:05:21.928Z,99790.44
2018-11-11T07:07:50.197Z,99803.99
2018-11-11T07:10:18.294Z,99815.44
2018-11-11T07:12:46.372Z,99887.31
2018-11-11T07:15:14.469Z,99864.14
2018-11-11T07:17:42.546Z,99849.11
2018-11-11T07:20:10.621Z,99841.37
2018-11-11T07:22:38.706Z,99852.62
2018-11-11T07:25:07.008Z,99861.91
2018-11-11T07:27:35.105Z,99869.89
2018-11-11T07:30:03.193Z,99856.63
2018-11-11T07:32:31.281Z,99858.86
2018-11-11T07:34:59.354Z,99847.66
2018-11-11T07:37:27.537Z,99840.55
2018-11-11T07:39:55.625Z,99837.52
2018-11-11T07:42:23.764Z,99834.18
2018-11-11T07:44:51.899Z,99814.46
2018-11-11T07:47:19.986Z,99823.07
2018-11-11T07:49:48.058Z,99820.55
2018-11-11T07:52:16.147Z,99825.30
2018-11-11T07:54:44.282Z,99812.50
2018-11-11T07:57:12.310Z,99821.03
2018-11-11T07:59:40.488Z,99822.99
2018-11-11T08:02:09.085Z,99822.62
2018-11-11T08:04:37.294Z,99808.19
2018-11-11T08:07:05.895Z,99810.92
2018-11-11T08:09:33.976Z,99820.02
2018-11-11T08:12:03.476Z,99815.11
2018-11-11T08:14:31.552Z,99810.25
2018-11-11T08:16:59.678Z,99806.12
2018-11-11T08:19:27.875Z,99815.20
2018-11-11T08:21:55.972Z,99824.02
2018-11-11T08:24:24.071Z,99828.41
2018-11-11T08:26:52.610Z,99833.68
2018-11-11T08:29:20.766Z,99837.16
2018-11-11T08:31:48.916Z,99839.86
2018-11-11T08:34:17.251Z,99832.05
2018-11-11T08:36:45.720Z,99837.73
2018-11-11T08:39:14.829Z,99834.35
2018-11-11T08:41:44.020Z,99848.23
2018-11-11T08:44:12.506Z,99839.06
2018-11-11T08:46:41.898Z,99841.17
2018-11-11T08:49:11.114Z,99854.23
2018-11-11T08:51:39.212Z,99858.47
2018-11-11T08:54:07.459Z,99847.05
2018-11-11T08:56:35.577Z,99851.67
2018-11-11T08:59:03.668Z,99855.73
2018-11-11T09:01:31.824Z,99851.64
2018-11-11T09:04:00.056Z,99853.92
2018-11-11T09:06:28.136Z,99854.64
2018-11-11T09:08:56.226Z,99860.34
2018-11-11T09:11:24.332Z,99871.72
2018-11-11T09:13:52.389Z,99862.91
2018-11-11T09:16:20.569Z,99869.53
2018-11-11T09:18:49.102Z,99864.39
2018-11-11T09:21:17.212Z,99874.00
2018-11-11T09:23:45.284Z,99869.45
2018-11-11T09:26:13.347Z,99871.37
2018-11-11T09:28:41.453Z,99877.03
2018-11-11T09:31:09.676Z,99885.98
2018-11-11T09:33:37.860Z,99889.28
2018-11-11T09:36:06.408Z,99892.20
2018-11-11T09:38:34.504Z,99909.88
2018-11-11T09:41:02.639Z,99916.34
2018-11-11T09:43:30.735Z,99908.63
2018-11-11T09:45:58.822Z,99914.18
2018-11-11T09:48:26.913Z,99916.89
2018-11-11T09:50:55.014Z,99916.17
2018-11-11T09:53:23.103Z,99914.76
2018-11-11T09:55:51.193Z,99914.76
2018-11-11T09:58:19.277Z,99914.42
2018-11-11T10:00:47.370Z,99913.66
2018-11-11T10:03:19.827Z,99913.56
2018-11-11T10:05:53.384Z,99910.23
2018-11-11T10:08:26.215Z,99914.72
2018-11-11T10:11:01.056Z,99912.40
2018-11-11T10:13:33.111Z,99914.38
2018-11-11T10:16:25.482Z,99913.03
2018-11-11T10:18:59.770Z,99912.26
2018-11-11T10:21:32.556Z,99917.31
2018-11-11T10:24:04.612Z,99915.69
2018-11-11T10:26:43.347Z,99918.11
2018-11-11T10:29:16.775Z,99915.53
2018-11-11T10:31:48.914Z,99910.58
2018-11-11T10:34:20.568Z,99911.73
2018-11-11T10:37:02.772Z,99904.97
2018-11-11T10:39:37.493Z,99910.02
2018-11-11T10:42:09.669Z,99894.48
2018-11-11T10:44:42.136Z,99898.47
2018-11-11T10:47:19.824Z,99900.22
2018-11-11T10:49:53.125Z,99892.31
2018-11-11T10:52:21.524Z,99885.22
2018-11-11T10:54:49.596Z,99887.05
2018-11-11T10:57:17.868Z,99880.16
2018-11-11T10:59:45.942Z,99873.72
2018-11-11T11:02:20.169Z,99867.86
2018-11-11T11:04:53.705Z,99868.36
2018-11-11T11:07:21.813Z,99864.34
2018-11-11T11:09:50.201Z,99861.59
2018-11-11T11:12:18.291Z,99853.87
2018-11-11T11:14:46.352Z,99851.20
2018-11-11T11:17:14.437Z,99854.52
2018-11-11T11:19:42.501Z,99851.27
2018-11-11T11:22:10.578Z,99848.11
2018-11-11T11:24:38.635Z,99854.14
2018-11-11T11:27:06.785Z,99861.59
2018-11-11T11:29:34.777Z,99863.02
2018-11-11T11:32:02.944Z,99865.83
2018-11-11T11:34:30.926Z,99857.21
2018-11-11T11:36:59.012Z,99866.31
2018-11-11T11:39:27.073Z,99870.84
2018-11-11T11:41:55.141Z,99869.28
2018-11-11T11:44:23.221Z,99862.69
2018-11-11T11:46:51.294Z,99866.33
2018-11-11T11:49:19.424Z,99875.92
2018-11-11T11:51:47.522Z,99883.41
2018-11-11T11:54:15.580Z,99879.47
2018-11-11T11:56:43.645Z,99877.80
2018-11-11T11:59:11.722Z,99874.73
2018-11-11T12:01:39.788Z,99873.69
2018-11-11T12:04:07.867Z,99872.85
2018-11-11T12:06:35.931Z,99877.51
2018-11-11T12:09:06.333Z,99877.66
2018-11-11T12:11:34.373Z,99875.20
2018-11-11T12:14:02.451Z,99878.08
2018-11-11T12:16:30.600Z,99873.00
2018-11-11T12:18:58.608Z,99880.11
2018-11-11T12:21:26.676Z,99877.66
2018-11-11T12:23:54.787Z,99879.41
2018-11-11T12:26:23.117Z,99889.20
2018-11-11T12:28:51.205Z,99886.37
2018-11-11T12:31:19.318Z,99891.94
2018-11-11T12:33:47.403Z,99885.08
2018-11-11T12:36:15.467Z,99894.63
2018-11-11T12:38:43.544Z,99886.97
2018-11-11T12:41:11.607Z,99889.77
2018-11-11T12:43:39.683Z,99891.77
2018-11-11T12:46:07.747Z,99897.78
2018-11-11T12:48:35.864Z,99891.30
2018-11-11T12:51:03.959Z,99901.52
2018-11-11T12:53:32.028Z,99896.06
2018-11-11T12:56:00.149Z,99895.19
2018-11-11T12:58:28.221Z,99897.70
2018-11-11T13:00:56.310Z,99896.94
2018-11-11T13:05:58.161Z,99894.86
2018-11-11T13:08:26.225Z,99893.85
2018-11-11T13:10:54.309Z,99891.40
2018-11-11T13:13:22.381Z,99895.98
2018-11-11T13:15:50.452Z,99901.83
2018-11-11T13:18:18.516Z,99900.36
2018-11-11T13:20:46.592Z,99897.62
2018-11-11T13:23:14.657Z,99902.22
2018-11-11T13:25:42.732Z,99893.75
2018-11-11T13:28:10.810Z,99892.98
2018-11-11T13:30:38.888Z,99897.95
2018-11-11T13:33:06.958Z,99895.84
2018-11-11T13:35:35.031Z,99899.07
2018-11-11T13:38:03.304Z,99898.20
2018-11-11T13:40:31.177Z,99898.80
2018-11-11T13:42:59.242Z,99908.73
2018-11-11T13:45:27.328Z,99914.69
2018-11-11T13:47:55.392Z,99921.12
2018-11-11T13:50:24.654Z,99923.75
2018-11-11T13:52:52.739Z,99929.25
2018-11-11T13:55:21.555Z,99923.88
2018-11-11T13:57:49.986Z,99924.99
2018-11-11T14:00:21.144Z,99910.70
2018-11-11T14:02:49.245Z,99919.14
2018-11-11T14:05:17.330Z,99920.45
2018-11-11T14:07:45.553Z,99928.69
2018-11-11T14:10:14.255Z,99926.80
2018-11-11T14:12:42.312Z,99926.27
2018-11-11T14:15:14.134Z,99918.78
2018-11-11T14:17:42.961Z,99919.73
2018-11-11T14:20:12.480Z,99922.39
2018-11-11T14:22:41.867Z,99917.48
2018-11-11T14:25:14.066Z,99909.26
2018-11-11T14:27:42.217Z,99917.41
2018-11-11T14:30:12.765Z,99916.48
2018-11-11T14:32:40.893Z,99914.95
2018-11-11T14:35:09.813Z,99910.81
2018-11-11T14:37:37.956Z,99904.30
2018-11-11T14:40:10.358Z,99897.72
2018-11-11T14:42:38.652Z,99892.08
2018-11-11T14:45:07.877Z,99884.63
2018-11-11T14:47:35.964Z,99881.61
2018-11-11T14:50:04.183Z,99878.21
2018-11-11T14:52:32.310Z,99872.02
2018-11-11T14:55:00.332Z,99880.30
2018-11-11T14:57:28.511Z,99884.21
2018-11-11T14:59:56.580Z,99881.72
2018-11-11T15:02:24.714Z,99880.56
2018-11-11T15:04:52.781Z,99877.06
2018-11-11T15:07:20.965Z,99880.41
2018-11-11T15:09:49.033Z,99886.45
2018-11-11T15:12:17.208Z,99886.63
2018-11-11T15:14:45.276Z,99884.13
2018-11-11T15:17:13.462Z,99889.01
2018-11-11T15:19:41.625Z,99892.45
2018-11-11T15:22:09.614Z,99887.30
2018-11-11T15:24:37.685Z,99884.42
2018-11-11T15:27:06.165Z,99877.52
2018-11-11T15:29:34.339Z,99872.98
2018-11-11T15:32:02.397Z,99883.05
2018-11-11T15:34:30.460Z,99896.61
2018-11-11T15:36:58.652Z,99898.88
2018-11-11T15:39:26.723Z,99900.92
2018-11-11T15:41:54.812Z,99906.80
2018-11-11T15:44:22.883Z,99902.61
2018-11-11T15:46:51.032Z,99895.73
2018-11-11T15:49:19.117Z,99882.92
2018-11-11T15:51:47.284Z,99895.20
2018-11-11T15:54:15.465Z,99898.59
2018-11-11T15:56:43.536Z,99907.09
2018-11-11T15:59:11.639Z,99911.36
2018-11-11T16:01:39.673Z,99920.33
2018-11-11T16:04:08.013Z,99918.85
2018-11-11T16:06:36.084Z,99925.64
2018-11-11T16:09:05.075Z,99931.30
2018-11-11T16:11:33.147Z,99934.52
2018-11-11T16:14:01.292Z,99946.25
2018-11-11T16:16:29.326Z,99943.05
2018-11-11T16:18:57.405Z,99943.36
2018-11-11T16:21:25.471Z,99955.87
2018-11-11T16:23:53.548Z,99969.29
2018-11-11T16:26:21.621Z,99968.89
2018-11-11T16:28:49.710Z,99972.36
2018-11-11T16:31:17.794Z,99975.95
2018-11-11T16:33:45.906Z,99986.73
2018-11-11T16:36:13.912Z,99984.39
2018-11-11T16:38:42.093Z,99978.94
2018-11-11T16:41:10.312Z,99983.75
2018-11-11T16:43:38.236Z,99985.49
2018-11-11T16:46:06.310Z,99981.02
2018-11-11T16:48:34.390Z,99975.88
2018-11-11T16:51:02.516Z,99979.33
2018-11-11T16:53:30.633Z,99973.62
2018-11-11T16:55:58.695Z,99982.02
2018-11-11T16:58:26.773Z,99972.91
2018-11-11T17:00:54.845Z,99979.84
2018-11-11T17:03:22.924Z,99985.56
2018-11-11T17:05:50.994Z,99992.52
2018-11-11T17:08:19.080Z,100002.59
2018-11-11T17:10:47.150Z,100003.78
2018-11-11T17:13:15.229Z,100001.23
2018-11-11T17:15:43.309Z,100013.70
2018-11-11T17:18:11.464Z,100002.99
2018-11-11T17:20:39.664Z,99998.44
2018-11-11T17:23:08.369Z,100001.41
2018-11-11T17:25:36.456Z,99999.41
2018-11-11T17:28:04.655Z,99994.18
2018-11-11T17:30:33.262Z,99994.83
2018-11-11T17:33:01.981Z,99998.62
2018-11-11T17:35:29.988Z,100002.06
2018-11-11T17:37:58.076Z,99992.55
2018-11-11T17:40:27.528Z,100002.34
2018-11-11T17:42:56.138Z,100008.41
2018-11-11T17:45:24.246Z,100011.31
2018-11-11T17:47:53.002Z,100016.52
2018-11-11T17:50:24.567Z,100018.91
2018-11-11T17:52:52.716Z,100025.62
2018-11-11T17:55:22.177Z,100017.87
2018-11-11T17:57:50.248Z,100026.66
2018-11-11T18:00:19.621Z,100034.52
2018-11-11T18:02:47.793Z,100023.86
2018-11-11T18:05:17.305Z,100016.06
2018-11-11T18:07:45.400Z,100002.66
2018-11-11T18:10:14.891Z,100005.37
2018-11-11T18:12:43.124Z,100011.20
2018-11-11T18:15:12.860Z,100010.00
2018-11-11T18:17:41.451Z,100007.92
2018-11-11T18:20:12.236Z,100009.55
2018-11-11T18:22:40.302Z,100007.13
2018-11-11T18:25:08.517Z,100032.44
2018-11-11T18:27:36.890Z,100020.30
2018-11-11T18:30:09.909Z,100020.65
2018-11-11T18:32:38.190Z,100015.57
2018-11-11T18:35:08.099Z,100023.87
2018-11-11T18:37:36.205Z,100018.44
2018-11-11T18:40:05.228Z,100031.80
2018-11-11T18:42:33.268Z,100030.52
2018-11-11T18:45:01.362Z,100028.74
2018-11-11T18:47:29.577Z,100026.50
2018-11-11T18:49:57.654Z,100020.95
2018-11-11T18:52:25.807Z,100024.70
2018-11-11T18:54:53.915Z,100023.34
2018-11-11T18:57:22.187Z,100026.13
2018-11-11T18:59:50.260Z,100028.34
2018-11-11T19:02:18.856Z,100035.47
2018-11-11T19:04:47.889Z,100040.42
2018-11-11T19:07:15.990Z,100048.09
2018-11-11T19:09:44.142Z,100059.34
2018-11-11T19:12:12.197Z,100058.61
2018-11-11T19:14:40.291Z,100056.63
2018-11-11T19:17:08.395Z,100053.32
2018-11-11T19:19:36.492Z,100057.39
2018-11-11T19:22:04.667Z,100061.58
2018-11-11T19:24:32.851Z,100069.14
2018-11-11T19:27:00.865Z,100057.20
2018-11-11T19:29:28.960Z,100047.63
2018-11-11T19:31:57.043Z,100059.59
2018-11-11T19:34:25.169Z,100055.21
2018-11-11T19:36:53.256Z,100061.69
2018-11-11T19:39:21.343Z,100060.56
2018-11-11T19:41:49.536Z,100058.41
2018-11-11T19:44:17.596Z,100048.20
2018-11-11T19:46:45.671Z,100047.32
2018-11-11T19:49:13.917Z,100042.92
2018-11-11T19:51:42.175Z,100043.89
2018-11-11T19:54:10.158Z,100041.95
2018-11-11T19:56:38.333Z,100058.09
2018-11-11T19:59:06.437Z,100068.39
2018-11-11T20:01:34.518Z,100067.34
2018-11-11T20:04:02.616Z,100076.36
2018-11-11T20:06:30.705Z,100070.94
2018-11-11T20:08:58.910Z,100069.69
2018-11-11T20:11:27.153Z,100077.50
2018-11-11T20:13:55.251Z,100080.22
2018-11-11T20:16:23.345Z,100086.67
2018-11-11T20:18:51.446Z,100090.66
2018-11-11T20:21:19.549Z,100090.34
2018-11-11T20:23:47.692Z,100098.66
2018-11-11T20:26:15.718Z,100100.70
2018-11-11T20:28:43.832Z,100105.91
2018-11-11T20:31:12.011Z,100109.83
2018-11-11T20:33:40.130Z,100108.21
2018-11-11T20:36:08.227Z,100104.62
2018-11-11T20:38:36.333Z,100105.42
2018-11-11T20:41:04.522Z,100111.79
2018-11-11T20:43:32.625Z,100109.33
2018-11-11T20:46:00.740Z,100108.37
2018-11-11T20:48:28.836Z,100112.95
2018-11-11T20:50:56.940Z,100110.86
2018-11-11T20:53:25.138Z,100119.05
2018-11-11T20:55:53.299Z,100118.91
2018-11-11T20:58:21.341Z,100117.55
2018-11-11T21:00:49.438Z,100134.53
2018-11-11T21:03:17.525Z,100137.55
2018-11-11T21:05:45.696Z,100133.97
2018-11-11T21:08:13.867Z,100144.30
2018-11-11T21:10:42.008Z,100136.67
2018-11-11T21:13:10.090Z,100131.26
2018-11-11T21:15:38.402Z,100130.67
2018-11-11T21:18:06.509Z,100130.27
2018-11-11T21:20:34.620Z,100132.61
2018-11-11T21:23:02.716Z,100128.92
2018-11-11T21:25:30.860Z,100132.03
2018-11-11T21:27:58.928Z,100130.92
2018-11-11T21:30:29.233Z,100133.39
2018-11-11T21:32:57.495Z,100140.34
2018-11-11T21:35:25.607Z,100143.69
2018-11-11T21:37:53.745Z,100151.88
2018-11-11T21:40:23.151Z,100153.10
2018-11-11T21:42:51.832Z,100157.23
2018-11-11T21:45:21.143Z,100164.01
2018-11-11T21:47:49.416Z,100159.41
2018-11-11T21:50:20.877Z,100162.27
2018-11-11T21:53:22.191Z,100169.39
2018-11-11T21:55:50.500Z,100173.14
2018-11-11T21:58:18.603Z,100173.59
2018-11-11T22:00:46.718Z,100182.45
2018-11-11T22:03:14.885Z,100181.67
2018-11-11T22:05:42.980Z,100183.05
2018-11-11T22:08:11.082Z,100192.06
2018-11-11T22:10:39.180Z,100199.73
2018-11-11T22:13:07.279Z,100199.66
2018-11-11T22:15:35.383Z,100195.44
2018-11-11T22:18:03.556Z,100183.78
2018-11-11T22:20:31.576Z,100190.16
2018-11-11T22:22:59.677Z,100185.54
2018-11-11T22:25:27.764Z,100189.13
2018-11-11T22:27:55.905Z,100188.95
2018-11-11T22:30:23.965Z,100184.81
2018-11-11T22:32:52.065Z,100183.63
2018-11-11T22:35:20.158Z,100195.27
2018-11-11T22:37:48.258Z,100195.27
2018-11-11T22:40:16.348Z,100189.69
2018-11-11T22:42:44.452Z,100187.59
2018-11-11T22:45:13.727Z,100201.72
2018-11-11T22:47:41.848Z,100199.10
2018-11-11T22:50:11.676Z,100199.39
2018-11-11T22:52:40.215Z,100205.21
2018-11-11T22:55:09.345Z,100198.50
2018-11-11T22:57:37.448Z,100194.75
2018-11-11T23:00:16.270Z,100190.92
2018-11-11T23:02:44.403Z,100199.67
2018-11-11T23:05:12.490Z,100203.39
2018-11-11T23:07:40.607Z,100202.69
2018-11-11T23:10:09.362Z,100192.62
2018-11-11T23:12:37.638Z,100182.15
2018-11-11T23:15:06.438Z,100199.97
2018-11-11T23:17:34.713Z,100194.78
2018-11-11T23:20:02.817Z,100195.80
2018-11-11T23:22:30.923Z,100200.70
2018-11-11T23:24:59.342Z,100192.81
2018-11-11T23:27:27.435Z,100198.08
2018-11-11T23:29:55.526Z,100206.57
2018-11-11T23:32:23.604Z,100197.60
2018-11-11T23:34:51.706Z,100210.02
2018-11-11T23:37:19.777Z,100201.21
2018-11-11T23:39:47.868Z,100194.48
2018-11-11T23:42:15.942Z,100186.48
2018-11-11T23:44:44.043Z,100188.34
2018-11-11T23:47:12.140Z,100192.63
2018-11-11T23:49:40.221Z,100180.66
2018-11-11T23:52:08.307Z,100184.27
2018-11-11T23:54:36.620Z,100187.75
2018-11-11T23:57:05.097Z,100187.14
2018-11-11T23:59:33.197Z,100194.48
